Data for 12/22/2012

Time Sea-Level Adjusted Pressure Absolute Pressure Temperature Relative Humidity Dew Point   
(mb) (inHg) (mb) (inHg) (C) (F) (%) (C) (F)
00:05 1014 29.94 843 24.89 -0.2 31.6 35 -13.9 6.9
00:10 1014 29.94 843 24.89 -0.1 31.9 34 -14.2 6.4
00:15 1014 29.94 843 24.89 0.1 32.2 34 -14 6.8
00:20 1014 29.94 843 24.89 -0.2 31.6 38 -12.8 9
00:25 1014 29.94 844 24.92 -0.9 30.4 42 -12.3 9.9
00:30 1015 29.97 844 24.92 -1.4 29.5 41 -13 8.6
00:35 1015 29.97 844 24.92 -1.3 29.6 43 -12.3 9.9
00:40 1015 29.97 844 24.92 -1.4 29.5 44 -12.2 10
00:45 1015 29.97 844 24.92 -2 28.4 48 -11.6 11.1
00:50 1015 29.97 844 24.92 -2.6 27.3 49 -11.8 10.8
00:55 1015 29.97 844 24.92 -3.1 26.5 48 -12.5 9.5
01:00 1015 29.97 844 24.92 -2.6 27.2 46 -12.9 8.8
01:05 1015 29.97 844 24.92 -2.3 27.8 43 -13.3 8.1
01:10 1015 29.97 844 24.92 -1.8 28.8 42 -13.1 8.4
01:15 1015 29.97 844 24.92 -1.9 28.5 43 -12.8 8.9
01:20 1015 29.97 844 24.92 -2.4 27.7 46 -12.5 9.5
01:25 1014 29.94 844 24.92 -2.6 27.3 45 -13.1 8.5
01:30 1014 29.94 844 24.92 -2.3 27.8 43 -13.4 7.8
01:35 1015 29.97 844 24.92 -2.2 28 43 -13.2 8.3
01:40 1014 29.94 844 24.92 -2.1 28.1 42 -13.3 8
01:45 1014 29.94 844 24.92 -1.9 28.5 40 -13.7 7.4
01:50 1014 29.94 844 24.92 -2 28.3 44 -12.9 8.8
01:55 1014 29.94 844 24.92 -2.3 27.9 41 -13.8 7.1
02:00 1014 29.94 844 24.92 -1.8 28.7 41 -13.4 7.8
02:05 1014 29.94 844 24.92 -1.7 29 43 -12.8 8.9
02:10 1014 29.94 844 24.92 -2.3 27.8 42 -13.7 7.3
02:15 1014 29.94 844 24.92 -1.3 29.7 36 -14.5 5.8
02:20 1014 29.94 843 24.89 -0.8 30.6 37 -13.9 7
02:25 1014 29.94 843 24.89 -1.1 30.1 37 -13.9 7
02:30 1014 29.94 843 24.89 -1.4 29.5 40 -13.4 7.9
02:35 1014 29.94 843 24.89 -1.8 28.8 41 -13.5 7.8
02:40 1014 29.94 843 24.89 -1.7 28.9 41 -13.5 7.7
02:45 1014 29.94 843 24.89 -1.7 29 39 -14 6.8
02:50 1014 29.94 843 24.89 -1.1 29.9 38 -13.9 7
02:55 1014 29.94 843 24.89 -0.8 30.6 35 -14.3 6.3
03:00 1014 29.94 843 24.89 -0.6 30.9 35 -14.3 6.3
03:05 1014 29.94 843 24.89 -0.4 31.3 34 -14.5 6
03:10 1014 29.94 843 24.89 -0.4 31.3 35 -14.1 6.7
03:15 1014 29.94 843 24.89 -0.4 31.2 35 -14.1 6.5
03:20 1014 29.94 844 24.92 -0.3 31.4 34 -14.5 5.9
03:25 1014 29.94 844 24.92 -0.3 31.4 34 -14.4 6
03:30 1014 29.94 844 24.92 -0.5 31 35 -14.1 6.6
03:35 1014 29.94 844 24.92 -0.8 30.6 37 -13.9 7
03:40 1014 29.94 844 24.92 -0.7 30.7 36 -14 6.7
03:45 1014 29.94 844 24.92 -1.2 29.8 39 -13.5 7.7
03:50 1015 29.97 844 24.92 -1.4 29.5 35 -14.8 5.3
03:55 1015 29.97 844 24.92 -1.3 29.6 38 -13.8 7.1
04:00 1015 29.97 844 24.92 -1 30.3 37 -14 6.8
04:05 1015 29.97 844 24.92 -1.5 29.3 41 -13.2 8.3
04:10 1015 29.97 844 24.92 -1.8 28.8 39 -14.1 6.6
04:15 1015 29.97 844 24.92 -0.7 30.8 34 -14.8 5.4
04:20 1015 29.97 844 24.92 0.3 32.6 32 -14.7 5.6
04:25 1015 29.97 844 24.92 0.4 32.7 33 -14.1 6.5
04:30 1015 29.97 844 24.92 -0.2 31.6 35 -13.9 7
04:35 1015 29.97 844 24.92 -1.3 29.7 39 -13.6 7.6
04:40 1015 29.97 844 24.92 -1.6 29.1 39 -13.9 7
04:45 1014 29.94 844 24.92 -1.6 29 38 -14.1 6.6
04:50 1014 29.94 844 24.92 -1.6 29.1 39 -13.9 6.9
04:55 1014 29.94 844 24.92 -1.6 29.1 39 -13.8 7.1
05:00 1014 29.94 844 24.92 -1.6 29.1 39 -13.8 7.2
05:05 1014 29.94 844 24.92 -1.8 28.8 40 -13.8 7.1
05:10 1014 29.94 844 24.92 -1.7 28.9 40 -13.7 7.4
05:15 1015 29.97 844 24.92 -1.9 28.6 40 -13.9 7.1
05:20 1015 29.97 844 24.92 -1.6 29.1 40 -13.7 7.4
05:25 1014 29.94 844 24.92 -1.5 29.3 38 -14 6.8
05:30 1014 29.94 844 24.92 -1.1 30.1 37 -14.2 6.5
05:35 1014 29.94 844 24.92 -0.7 30.8 35 -14.2 6.5
05:40 1014 29.94 844 24.92 -0.7 30.7 35 -14.4 6.1
05:45 1014 29.94 844 24.92 -0.6 31 35 -14.1 6.6
05:50 1014 29.94 844 24.92 -0.7 30.7 36 -14.2 6.5
05:55 1014 29.94 844 24.92 -0.7 30.7 34 -14.7 5.6
06:00 1014 29.94 844 24.92 -0.3 31.4 34 -14.4 6.2
06:05 1015 29.97 844 24.92 -0.1 31.7 34 -14.3 6.2
06:10 1015 29.97 844 24.92 -0.4 31.2 35 -14.3 6.3
06:15 1015 29.97 844 24.92 -0.5 31.2 34 -14.4 6.1
06:20 1015 29.97 844 24.92 -0.5 31.1 35 -14.1 6.7
06:25 1015 29.97 844 24.92 -0.8 30.5 38 -13.3 8
06:30 1015 29.97 844 24.92 -1.9 28.5 41 -13.5 7.8
06:35 1015 29.97 844 24.92 -2.2 28.1 41 -13.9 7
06:40 1015 29.97 844 24.92 -2 28.5 40 -13.8 7.1
06:45 1015 29.97 844 24.92 -2.1 28.2 40 -14 6.8
06:50 1015 29.97 844 24.92 -2 28.3 40 -13.8 7.2
06:55 1015 29.97 844 24.92 -2 28.3 40 -13.9 7
07:00 1014 29.94 844 24.92 -1.9 28.5 40 -13.7 7.3
07:05 1014 29.94 844 24.92 -2.4 27.7 42 -13.5 7.7
07:10 1015 29.97 844 24.92 -2.6 27.3 42 -13.7 7.3
07:15 1015 29.97 844 24.92 -2.2 28.1 40 -14.2 6.4
07:20 1014 29.94 844 24.92 -2.2 28.1 41 -13.6 7.5
07:25 1015 29.97 844 24.92 -2 28.4 39 -14.1 6.5
07:30 1015 29.97 844 24.92 -2 28.4 42 -13.3 8
07:35 1015 29.97 844 24.92 -2.7 27.2 43 -13.6 7.5
07:40 1015 29.97 844 24.92 -2.7 27.1 44 -13.5 7.8
07:45 1015 29.97 844 24.92 -2.5 27.4 42 -13.8 7.1
07:50 1015 29.97 844 24.92 -2.6 27.2 43 -13.5 7.6
07:55 1015 29.97 844 24.92 -2.6 27.3 43 -13.4 7.8
08:00 1015 29.97 844 24.92 -3.1 26.4 46 -13.3 8.1
08:05 1015 29.97 844 24.92 -3.1 26.3 44 -13.9 7
08:10 1015 29.97 844 24.92 -2.4 27.6 41 -14 6.7
08:15 1015 29.97 844 24.92 -2.2 28 41 -13.7 7.3
08:20 1014 29.94 844 24.92 -2.1 28.3 40 -14.1 6.6
08:25 1014 29.94 844 24.92 -2 28.4 40 -14 6.8
08:30 1014 29.94 843 24.89 -1.6 29.2 39 -13.9 7
08:35 1014 29.94 843 24.89 -1.5 29.3 39 -13.6 7.5
08:40 1014 29.94 843 24.89 -1.6 29.2 39 -13.7 7.3
08:45 1014 29.94 843 24.89 -1.8 28.7 40 -13.8 7.1
08:50 1014 29.94 843 24.89 -1.8 28.7 40 -13.7 7.3
08:55 1014 29.94 843 24.89 -1.8 28.8 39 -14 6.8
09:00 1014 29.94 843 24.89 -1.6 29.2 38 -14.1 6.7
09:05 1014 29.94 843 24.89 -1.4 29.5 38 -13.9 7
09:10 1014 29.94 843 24.89 -1.6 29.2 39 -13.9 7
09:15 1014 29.94 843 24.89 -1.6 29.2 38 -14 6.8
09:20 1014 29.94 843 24.89 -1.5 29.3 38 -14.2 6.5
09:25 1014 29.94 843 24.89 -1.3 29.6 38 -14 6.7
09:30 1014 29.94 843 24.89 -1.2 29.8 37 -14.2 6.4
09:35 1014 29.94 843 24.89 -1 30.2 36 -14.4 6.1
09:40 1014 29.94 843 24.89 -0.7 30.8 35 -14.2 6.5
09:45 1014 29.94 843 24.89 -0.4 31.2 35 -14.2 6.5
09:50 1014 29.94 843 24.89 -0.4 31.2 34 -14.4 6.1
09:55 1014 29.94 843 24.89 -0.6 31 36 -13.9 6.9
10:00 1014 29.94 843 24.89 -0.8 30.7 36 -14 6.8
10:05 1014 29.94 843 24.89 -0.8 30.5 37 -13.8 7.2
10:10 1014 29.94 843 24.89 -0.7 30.7 35 -14.4 6.2
10:15 1014 29.94 843 24.89 -0.2 31.7 36 -13.7 7.4
10:20 1014 29.94 843 24.89 -0.3 31.4 37 -13.4 7.8
10:25 1014 29.94 843 24.89 -0.7 30.8 37 -13.8 7.2
10:30 1014 29.94 843 24.89 -0.6 31 38 -13.3 8
10:35 1014 29.94 843 24.89 -0.5 31.1 37 -13.4 7.8
10:40 1014 29.94 843 24.89 -0.4 31.3 36 -13.6 7.5
10:45 1014 29.94 843 24.89 -0.1 31.8 36 -13.4 7.9
10:50 1014 29.94 843 24.89 -0.1 31.8 37 -13.1 8.4
10:55 1014 29.94 843 24.89 0 32 36 -13.5 7.7
11:00 1014 29.94 843 24.89 0.4 32.7 35 -13.4 7.9
11:05 1014 29.94 843 24.89 0.5 33 35 -13.2 8.3
11:10 1013 29.91 843 24.89 0.8 33.4 34 -13.3 8.1
11:15 1013 29.91 843 24.89 1.3 34.3 32 -13.6 7.5
11:20 1013 29.91 843 24.89 1.7 35.1 32 -13.1 8.4
11:25 1013 29.91 843 24.89 1.9 35.4 32 -13.3 8
11:30 1013 29.91 843 24.89 2.2 35.9 31 -13.4 7.9
11:35 1013 29.91 843 24.89 2.5 36.5 30 -13.6 7.6
11:40 1013 29.91 843 24.89 3 37.4 29 -13.5 7.8
11:45 1013 29.91 842 24.86 3.5 38.3 29 -12.9 8.9
11:50 1013 29.91 842 24.86 3.9 38.9 28 -13.2 8.3
11:55 1013 29.91 842 24.86 4.2 39.5 28 -13 8.6
12:00 1013 29.91 842 24.86 4.5 40 26 -13.5 7.8
12:05 1013 29.91 842 24.86 4.7 40.5 26 -13.5 7.7
12:10 1013 29.91 842 24.86 4.7 40.5 26 -13.3 8
12:15 1013 29.91 842 24.86 5 41.1 26 -13.1 8.5
12:20 1013 29.91 842 24.86 5.1 41.2 26 -13.1 8.4
12:25 1013 29.91 842 24.86 5.2 41.3 25 -13.5 7.6
12:30 1012 29.88 842 24.86 5.1 41.1 29 -11.4 11.6
12:35 1012 29.88 842 24.86 3.9 39 32 -11.2 11.9
12:40 1012 29.88 841 24.83 2.1 35.8 36 -11.4 11.4
12:45 1012 29.88 841 24.83 2 35.7 37 -11.3 11.7
12:50 1012 29.88 841 24.83 1.6 34.9 39 -10.9 12.5
12:55 1012 29.88 841 24.83 1.5 34.6 38 -11.4 11.5
13:00 1012 29.88 841 24.83 1.2 34.1 41 -10.7 12.7
13:05 1012 29.88 841 24.83 1.4 34.5 39 -11.1 12
13:10 1012 29.88 841 24.83 1.7 35 36 -11.7 10.9
13:15 1012 29.88 841 24.83 1.4 34.6 37 -11.9 10.6
13:20 1012 29.88 841 24.83 1.4 34.5 35 -12.5 9.6
13:25 1012 29.88 841 24.83 2.2 36 34 -12.1 10.2
13:30 1012 29.88 841 24.83 1.8 35.3 38 -11.2 11.8
13:35 1011 29.85 841 24.83 0.6 33.1 42 -11 12.2
13:40 1011 29.85 841 24.83 0.9 33.6 39 -11.7 11
13:45 1011 29.85 840 24.81 1.2 34.2 38 -11.6 11.1
13:50 1011 29.85 840 24.81 1.7 35 37 -11.5 11.2
13:55 1011 29.85 840 24.81 1.7 35 38 -11.3 11.7
14:00 1011 29.85 840 24.81 0.9 33.7 42 -10.7 12.7
14:05 1011 29.85 840 24.81 0.3 32.5 41 -11.4 11.5
14:10 1011 29.85 840 24.81 -0.1 31.8 44 -10.8 12.5
14:15 1011 29.85 840 24.81 0.5 32.8 38 -12.2 10
14:20 1011 29.85 840 24.81 -0.4 31.3 41 -12.1 10.3
14:25 1011 29.85 840 24.81 -1 30.3 48 -10.5 13.1
14:30 1011 29.85 840 24.81 -1.2 29.9 43 -12.1 10.2
14:35 1011 29.85 840 24.81 -0.4 31.2 45 -10.9 12.5
14:40 1011 29.85 840 24.81 -0.5 31 42 -11.9 10.6
14:45 1011 29.85 840 24.81 -0.2 31.6 45 -10.7 12.7
14:50 1010 29.83 840 24.81 -0.3 31.4 43 -11.3 11.6
14:55 1010 29.83 840 24.81 0.2 32.4 42 -11.4 11.5
15:00 1010 29.83 840 24.81 -0.1 31.8 43 -11.3 11.6
15:05 1010 29.83 840 24.81 -0.5 31.1 44 -11.4 11.5
15:10 1010 29.83 840 24.81 -0.2 31.7 42 -11.6 11.1
15:15 1010 29.83 840 24.81 -0 32 43 -11.1 11.9
15:20 1010 29.83 840 24.81 0.2 32.4 42 -11.3 11.7
15:25 1010 29.83 840 24.81 -0.1 31.9 44 -10.8 12.5
15:30 1010 29.83 840 24.81 -0.4 31.2 44 -11.3 11.7
15:35 1010 29.83 840 24.81 -0.3 31.5 40 -12.2 10
15:40 1010 29.83 840 24.81 0.1 32.2 44 -10.8 12.5
15:45 1010 29.83 839 24.78 -0.5 31.1 40 -12.4 9.7
15:50 1010 29.83 839 24.78 0.3 32.5 40 -11.7 10.9
15:55 1010 29.83 839 24.78 -0.3 31.4 44 -11.3 11.7
16:00 1010 29.83 839 24.78 -0.1 31.9 42 -11.4 11.4
16:05 1010 29.83 839 24.78 -0.2 31.7 42 -11.6 11.2
16:10 1010 29.83 839 24.78 -0.2 31.7 42 -11.5 11.2
16:15 1010 29.83 839 24.78 0.1 32.1 42 -11.2 11.8
16:20 1010 29.83 839 24.78 -0.1 31.9 43 -11.2 11.9
16:25 1010 29.83 839 24.78 -0.1 31.7 44 -10.9 12.4
16:30 1010 29.83 839 24.78 0.1 32.2 43 -11.2 11.9
16:35 1010 29.83 839 24.78 0.3 32.5 43 -11 12.2
16:40 1010 29.83 839 24.78 0.1 32.2 44 -10.8 12.6
16:45 1010 29.83 839 24.78 0.3 32.5 37 -12.7 9.2
16:50 1010 29.83 839 24.78 0.3 32.5 44 -10.6 12.9
16:55 1010 29.83 839 24.78 0.1 32.1 42 -11.5 11.2
17:00 1009 29.8 839 24.78 0.1 32.1 46 -10.3 13.4
17:05 1009 29.8 839 24.78 -0.2 31.6 46 -10.5 13.1
17:10 1009 29.8 839 24.78 -0.2 31.6 47 -10.3 13.4
17:15 1009 29.8 839 24.78 -0.1 31.9 41 -11.8 10.8
17:20 1009 29.8 838 24.75 0.6 33 39 -11.8 10.8
17:25 1009 29.8 838 24.75 0.6 33.1 40 -11.4 11.5
17:30 1009 29.8 838 24.75 0.8 33.4 34 -13.5 7.8
17:35 1009 29.8 838 24.75 1.7 35.1 35 -12.3 9.9
17:40 1009 29.8 838 24.75 1.7 35 32 -13.3 8
17:45 1009 29.8 838 24.75 2.2 36 33 -12.6 9.4
17:50 1009 29.8 838 24.75 2.3 36.1 33 -12.6 9.4
17:55 1009 29.8 838 24.75 2 35.7 33 -12.6 9.4
18:00 1009 29.8 838 24.75 2.1 35.8 31 -13.2 8.2
18:05 1009 29.8 838 24.75 2.7 36.8 24 -15.8 3.6
18:10 1009 29.8 838 24.75 3.3 38 28 -13.4 7.9
18:15 1009 29.8 838 24.75 3 37.4 26 -14.8 5.3
18:20 1009 29.8 838 24.75 3.7 38.6 27 -13.8 7.1
18:25 1009 29.8 838 24.75 3.4 38.1 26 -14.3 6.2
18:30 1009 29.8 838 24.75 3.4 38.2 21 -16.9 1.7
18:35 1009 29.8 838 24.75 4.6 40.3 20 -16.8 1.8
18:40 1009 29.8 838 24.75 5.1 41.1 21 -15.7 3.7
18:45 1009 29.8 838 24.75 4.7 40.5 22 -15.2 4.7
18:50 1009 29.8 838 24.75 5 41.1 23 -14.7 5.6
18:55 1009 29.8 838 24.75 4.6 40.3 24 -14.4 6.1
19:00 1009 29.8 838 24.75 4.2 39.5 23 -15 4.9
19:05 1009 29.8 838 24.75 4.5 40.1 25 -14.1 6.6
19:10 1009 29.8 838 24.75 4.7 40.5 23 -14.8 5.4
19:15 1009 29.8 838 24.75 4.6 40.3 23 -14.7 5.5
19:20 1009 29.8 838 24.75 4.7 40.4 26 -13.5 7.8
19:25 1009 29.8 838 24.75 4.7 40.4 27 -12.9 8.8
19:30 1009 29.8 838 24.75 4.7 40.5 28 -12.2 10
19:35 1009 29.8 838 24.75 4.7 40.5 28 -12.5 9.5
19:40 1009 29.8 838 24.75 4.8 40.7 30 -11.5 11.4
19:45 1009 29.8 838 24.75 4.9 40.7 29 -11.7 10.9
19:50 1009 29.8 838 24.75 4.9 40.9 31 -11 12.1
19:55 1009 29.8 838 24.75 4.7 40.4 30 -11.5 11.2
20:00 1009 29.8 838 24.75 4.7 40.4 31 -11.1 12
20:05 1009 29.8 838 24.75 4.6 40.2 32 -10.8 12.6
20:10 1009 29.8 838 24.75 4.3 39.8 34 -10.2 13.6
20:15 1009 29.8 838 24.75 4.2 39.6 36 -9.7 14.5
20:20 1009 29.8 838 24.75 4.1 39.4 37 -9.4 15
20:25 1009 29.8 838 24.75 4 39.1 38 -9.2 15.5
20:30 1009 29.8 838 24.75 3.8 38.9 41 -8.4 16.9
20:35 1009 29.8 838 24.75 3.7 38.7 39 -8.9 16
20:40 1009 29.8 838 24.75 3.8 38.8 40 -8.6 16.6
20:45 1009 29.8 838 24.75 3.7 38.7 40 -8.7 16.3
20:50 1009 29.8 838 24.75 3.7 38.7 41 -8.4 16.9
20:55 1009 29.8 838 24.75 4 39.2 37 -9.5 14.9
21:00 1009 29.8 838 24.75 4.2 39.6 37 -9.2 15.4
21:05 1009 29.8 838 24.75 4.4 39.9 36 -9.5 15
21:10 1009 29.8 838 24.75 4.1 39.4 35 -10 13.9
21:15 1009 29.8 838 24.75 4.1 39.3 38 -9.1 15.6
21:20 1009 29.8 838 24.75 4 39.2 37 -9.3 15.3
21:25 1009 29.8 838 24.75 4.3 39.8 33 -10.4 13.2
21:30 1009 29.8 838 24.75 4.4 40 34 -10.2 13.7
21:35 1009 29.8 838 24.75 4.3 39.7 35 -9.9 14.2
21:40 1009 29.8 838 24.75 4.1 39.3 35 -10.1 13.9
21:45 1009 29.8 838 24.75 4 39.2 36 -9.8 14.4
21:50 1009 29.8 838 24.75 3.9 39 36 -9.8 14.3
21:55 1009 29.8 838 24.75 3.8 38.8 37 -9.7 14.5
22:00 1009 29.8 838 24.75 3.7 38.6 36 -10.2 13.6
22:05 1009 29.8 838 24.75 3.7 38.6 37 -9.7 14.6
22:10 1009 29.8 838 24.75 3.6 38.5 36 -10 14
22:15 1009 29.8 838 24.75 3.7 38.6 38 -9.5 15
22:20 1009 29.8 838 24.75 3.7 38.7 35 -10.5 13.2
22:25 1009 29.8 838 24.75 3.7 38.7 36 -9.9 14.1
22:30 1009 29.8 838 24.75 3.5 38.2 36 -10.2 13.7
22:35 1009 29.8 838 24.75 3.6 38.5 34 -10.7 12.7
22:40 1009 29.8 838 24.75 3.5 38.3 38 -9.7 14.5
22:45 1009 29.8 838 24.75 3.3 38 36 -10.3 13.5
22:50 1009 29.8 838 24.75 3.5 38.3 34 -10.9 12.4
22:55 1009 29.8 838 24.75 3.5 38.2 37 -10 14
23:00 1009 29.8 838 24.75 3.6 38.4 38 -9.5 14.8
23:05 1009 29.8 838 24.75 3.6 38.5 35 -10.3 13.5
23:10 1009 29.8 838 24.75 3.8 38.8 35 -10.3 13.4
23:15 1009 29.8 838 24.75 3.8 38.8 34 -10.8 12.5
23:20 1009 29.8 838 24.75 3.8 38.8 33 -10.9 12.4
23:25 1009 29.8 838 24.75 3.8 38.8 35 -10.4 13.2
23:30 1009 29.8 838 24.75 3 37.5 40 -9.2 15.5
23:35 1009 29.8 838 24.75 2.6 36.7 37 -10.6 13
23:40 1009 29.8 838 24.75 2.9 37.2 37 -10.6 13
23:45 1009 29.8 838 24.75 3.1 37.6 37 -10.3 13.5
23:50 1009 29.8 838 24.75 3.2 37.8 37 -10 14
23:55 1009 29.8 838 24.75 3.2 37.8 38 -9.8 14.4
24:00 1009 29.8 838 24.75 3.3 38 41 -8.8 16.1